sensor_id;sensor_type;location;lat;lon;timestamp;P1;durP1;ratioP1;P2;durP2;ratioP2
32333;SDS011;18810;53.040;8.850;2023-08-08T00:02:22;5.13;;;3.67;;
32333;SDS011;18810;53.040;8.850;2023-08-08T00:04:48;5.50;;;3.45;;
32333;SDS011;18810;53.040;8.850;2023-08-08T00:07:15;5.35;;;3.08;;
32333;SDS011;18810;53.040;8.850;2023-08-08T00:09:41;3.58;;;2.45;;
32333;SDS011;18810;53.040;8.850;2023-08-08T00:12:06;6.47;;;3.20;;
32333;SDS011;18810;53.040;8.850;2023-08-08T00:14:32;7.10;;;3.80;;
32333;SDS011;18810;53.040;8.850;2023-08-08T00:16:58;7.00;;;3.55;;
32333;SDS011;18810;53.040;8.850;2023-08-08T00:19:24;7.90;;;3.28;;
32333;SDS011;18810;53.040;8.850;2023-08-08T00:21:49;5.63;;;3.92;;
32333;SDS011;18810;53.040;8.850;2023-08-08T00:24:15;6.97;;;3.28;;
32333;SDS011;18810;53.040;8.850;2023-08-08T00:26:41;4.93;;;3.40;;
32333;SDS011;18810;53.040;8.850;2023-08-08T00:29:06;7.60;;;3.90;;
32333;SDS011;18810;53.040;8.850;2023-08-08T00:31:32;8.45;;;4.10;;
32333;SDS011;18810;53.040;8.850;2023-08-08T00:33:58;8.27;;;3.75;;
32333;SDS011;18810;53.040;8.850;2023-08-08T00:36:23;4.88;;;3.25;;
32333;SDS011;18810;53.040;8.850;2023-08-08T00:38:49;6.63;;;3.60;;
32333;SDS011;18810;53.040;8.850;2023-08-08T00:41:15;6.13;;;3.20;;
32333;SDS011;18810;53.040;8.850;2023-08-08T00:43:41;6.00;;;3.25;;
32333;SDS011;18810;53.040;8.850;2023-08-08T00:46:08;6.75;;;3.88;;
32333;SDS011;18810;53.040;8.850;2023-08-08T00:48:34;7.15;;;3.55;;
32333;SDS011;18810;53.040;8.850;2023-08-08T00:51:00;7.43;;;4.15;;
32333;SDS011;18810;53.040;8.850;2023-08-08T00:53:26;5.82;;;3.58;;
32333;SDS011;18810;53.040;8.850;2023-08-08T00:55:55;7.72;;;3.35;;
32333;SDS011;18810;53.040;8.850;2023-08-08T00:58:21;5.28;;;3.60;;
32333;SDS011;18810;53.040;8.850;2023-08-08T01:00:47;6.13;;;3.92;;
32333;SDS011;18810;53.040;8.850;2023-08-08T01:03:13;7.10;;;3.85;;
32333;SDS011;18810;53.040;8.850;2023-08-08T01:05:41;14.73;;;5.03;;
32333;SDS011;18810;53.040;8.850;2023-08-08T01:08:13;9.90;;;4.07;;
32333;SDS011;18810;53.040;8.850;2023-08-08T01:10:42;8.85;;;3.92;;
32333;SDS011;18810;53.040;8.850;2023-08-08T01:13:09;6.05;;;3.92;;
32333;SDS011;18810;53.040;8.850;2023-08-08T01:15:39;8.52;;;3.72;;
32333;SDS011;18810;53.040;8.850;2023-08-08T01:18:06;4.75;;;3.70;;
32333;SDS011;18810;53.040;8.850;2023-08-08T01:20:34;7.10;;;4.10;;
32333;SDS011;18810;53.040;8.850;2023-08-08T01:23:09;6.07;;;3.65;;
32333;SDS011;18810;53.040;8.850;2023-08-08T01:25:51;9.07;;;4.00;;
32333;SDS011;18810;53.040;8.850;2023-08-08T01:28:20;6.60;;;3.85;;
32333;SDS011;18810;53.040;8.850;2023-08-08T01:30:47;6.47;;;3.80;;
32333;SDS011;18810;53.040;8.850;2023-08-08T01:33:13;7.60;;;4.25;;
32333;SDS011;18810;53.040;8.850;2023-08-08T01:35:39;5.35;;;4.05;;
32333;SDS011;18810;53.040;8.850;2023-08-08T01:38:12;9.18;;;4.85;;
32333;SDS011;18810;53.040;8.850;2023-08-08T01:40:44;8.23;;;4.43;;
32333;SDS011;18810;53.040;8.850;2023-08-08T01:43:11;9.27;;;4.55;;
32333;SDS011;18810;53.040;8.850;2023-08-08T01:45:38;11.93;;;4.72;;
32333;SDS011;18810;53.040;8.850;2023-08-08T01:48:08;6.30;;;4.68;;
32333;SDS011;18810;53.040;8.850;2023-08-08T01:50:35;5.13;;;4.53;;
32333;SDS011;18810;53.040;8.850;2023-08-08T01:53:01;5.88;;;4.05;;
32333;SDS011;18810;53.040;8.850;2023-08-08T01:55:27;8.55;;;5.07;;
32333;SDS011;18810;53.040;8.850;2023-08-08T01:57:52;5.35;;;4.22;;
32333;SDS011;18810;53.040;8.850;2023-08-08T02:00:18;8.35;;;4.35;;
32333;SDS011;18810;53.040;8.850;2023-08-08T02:02:44;6.43;;;4.18;;
32333;SDS011;18810;53.040;8.850;2023-08-08T02:05:09;7.30;;;4.57;;
32333;SDS011;18810;53.040;8.850;2023-08-08T02:07:35;11.10;;;5.00;;
32333;SDS011;18810;53.040;8.850;2023-08-08T02:10:01;7.82;;;4.55;;
32333;SDS011;18810;53.040;8.850;2023-08-08T02:12:27;6.47;;;4.60;;
32333;SDS011;18810;53.040;8.850;2023-08-08T02:14:55;9.55;;;4.95;;
32333;SDS011;18810;53.040;8.850;2023-08-08T02:17:24;9.68;;;4.97;;
32333;SDS011;18810;53.040;8.850;2023-08-08T02:19:51;7.90;;;4.75;;
32333;SDS011;18810;53.040;8.850;2023-08-08T02:22:17;9.63;;;5.00;;
32333;SDS011;18810;53.040;8.850;2023-08-08T02:24:42;6.78;;;5.78;;
32333;SDS011;18810;53.040;8.850;2023-08-08T02:27:08;9.75;;;5.47;;
32333;SDS011;18810;53.040;8.850;2023-08-08T02:29:34;9.52;;;5.22;;
32333;SDS011;18810;53.040;8.850;2023-08-08T02:32:00;11.80;;;6.22;;
32333;SDS011;18810;53.040;8.850;2023-08-08T02:34:26;7.53;;;4.97;;
32333;SDS011;18810;53.040;8.850;2023-08-08T02:36:51;8.60;;;5.15;;
32333;SDS011;18810;53.040;8.850;2023-08-08T02:39:17;10.13;;;5.80;;
32333;SDS011;18810;53.040;8.850;2023-08-08T02:41:43;9.10;;;6.10;;
32333;SDS011;18810;53.040;8.850;2023-08-08T02:44:10;8.50;;;5.53;;
32333;SDS011;18810;53.040;8.850;2023-08-08T02:46:36;10.05;;;5.25;;
32333;SDS011;18810;53.040;8.850;2023-08-08T02:49:03;10.38;;;5.57;;
32333;SDS011;18810;53.040;8.850;2023-08-08T02:51:30;7.50;;;5.53;;
32333;SDS011;18810;53.040;8.850;2023-08-08T02:53:55;8.80;;;5.53;;
32333;SDS011;18810;53.040;8.850;2023-08-08T02:56:21;8.85;;;5.45;;
32333;SDS011;18810;53.040;8.850;2023-08-08T02:58:47;11.52;;;5.93;;
32333;SDS011;18810;53.040;8.850;2023-08-08T03:01:12;13.10;;;6.40;;
32333;SDS011;18810;53.040;8.850;2023-08-08T03:03:40;13.05;;;5.22;;
32333;SDS011;18810;53.040;8.850;2023-08-08T03:06:06;8.70;;;5.80;;
32333;SDS011;18810;53.040;8.850;2023-08-08T03:08:32;9.45;;;6.22;;
32333;SDS011;18810;53.040;8.850;2023-08-08T03:10:57;10.50;;;6.13;;
32333;SDS011;18810;53.040;8.850;2023-08-08T03:13:23;11.05;;;6.03;;
32333;SDS011;18810;53.040;8.850;2023-08-08T03:15:49;9.70;;;5.80;;
32333;SDS011;18810;53.040;8.850;2023-08-08T03:18:14;7.47;;;5.72;;
32333;SDS011;18810;53.040;8.850;2023-08-08T03:20:40;10.80;;;6.38;;
32333;SDS011;18810;53.040;8.850;2023-08-08T03:23:06;8.00;;;5.82;;
32333;SDS011;18810;53.040;8.850;2023-08-08T03:25:31;8.02;;;6.30;;
32333;SDS011;18810;53.040;8.850;2023-08-08T03:27:57;11.38;;;6.25;;
32333;SDS011;18810;53.040;8.850;2023-08-08T03:30:23;12.00;;;6.55;;
32333;SDS011;18810;53.040;8.850;2023-08-08T03:32:49;8.98;;;5.97;;
32333;SDS011;18810;53.040;8.850;2023-08-08T03:35:14;10.63;;;6.03;;
32333;SDS011;18810;53.040;8.850;2023-08-08T03:37:40;11.43;;;6.88;;
32333;SDS011;18810;53.040;8.850;2023-08-08T03:40:07;10.77;;;6.18;;
32333;SDS011;18810;53.040;8.850;2023-08-08T03:42:33;9.30;;;6.10;;
32333;SDS011;18810;53.040;8.850;2023-08-08T03:44:59;11.35;;;6.30;;
32333;SDS011;18810;53.040;8.850;2023-08-08T03:47:25;14.40;;;6.32;;
32333;SDS011;18810;53.040;8.850;2023-08-08T03:49:50;9.63;;;6.68;;
32333;SDS011;18810;53.040;8.850;2023-08-08T03:52:20;11.18;;;6.60;;
32333;SDS011;18810;53.040;8.850;2023-08-08T03:54:46;9.77;;;6.43;;
32333;SDS011;18810;53.040;8.850;2023-08-08T03:57:12;9.48;;;6.35;;
32333;SDS011;18810;53.040;8.850;2023-08-08T03:59:38;10.05;;;6.35;;
32333;SDS011;18810;53.040;8.850;2023-08-08T04:02:04;9.55;;;6.07;;
32333;SDS011;18810;53.040;8.850;2023-08-08T04:04:29;11.55;;;6.32;;
32333;SDS011;18810;53.040;8.850;2023-08-08T04:06:55;9.18;;;6.50;;
32333;SDS011;18810;53.040;8.850;2023-08-08T04:09:21;10.63;;;6.07;;
32333;SDS011;18810;53.040;8.850;2023-08-08T04:11:47;10.10;;;6.47;;
32333;SDS011;18810;53.040;8.850;2023-08-08T04:14:12;7.25;;;6.13;;
32333;SDS011;18810;53.040;8.850;2023-08-08T04:16:38;13.18;;;6.03;;
32333;SDS011;18810;53.040;8.850;2023-08-08T04:19:04;16.13;;;6.70;;
32333;SDS011;18810;53.040;8.850;2023-08-08T04:21:30;12.68;;;6.40;;
32333;SDS011;18810;53.040;8.850;2023-08-08T04:23:57;13.73;;;6.88;;
32333;SDS011;18810;53.040;8.850;2023-08-08T04:26:24;9.45;;;6.35;;
32333;SDS011;18810;53.040;8.850;2023-08-08T04:28:50;10.20;;;6.30;;
32333;SDS011;18810;53.040;8.850;2023-08-08T04:31:16;13.77;;;6.53;;
32333;SDS011;18810;53.040;8.850;2023-08-08T04:33:42;9.65;;;6.78;;
32333;SDS011;18810;53.040;8.850;2023-08-08T04:36:08;10.35;;;6.47;;
32333;SDS011;18810;53.040;8.850;2023-08-08T04:38:33;9.10;;;6.10;;
32333;SDS011;18810;53.040;8.850;2023-08-08T04:40:59;10.73;;;6.57;;
32333;SDS011;18810;53.040;8.850;2023-08-08T04:43:25;11.27;;;6.75;;
32333;SDS011;18810;53.040;8.850;2023-08-08T04:45:52;7.68;;;5.93;;
32333;SDS011;18810;53.040;8.850;2023-08-08T04:48:18;8.07;;;5.97;;
32333;SDS011;18810;53.040;8.850;2023-08-08T04:50:47;10.02;;;5.82;;
32333;SDS011;18810;53.040;8.850;2023-08-08T04:53:13;9.18;;;6.00;;
32333;SDS011;18810;53.040;8.850;2023-08-08T04:55:39;9.48;;;6.22;;
32333;SDS011;18810;53.040;8.850;2023-08-08T04:58:04;11.02;;;5.82;;
32333;SDS011;18810;53.040;8.850;2023-08-08T05:00:30;17.70;;;6.25;;
32333;SDS011;18810;53.040;8.850;2023-08-08T05:02:56;10.35;;;5.75;;
32333;SDS011;18810;53.040;8.850;2023-08-08T05:05:22;9.20;;;5.75;;
32333;SDS011;18810;53.040;8.850;2023-08-08T05:07:48;11.35;;;5.38;;
32333;SDS011;18810;53.040;8.850;2023-08-08T05:10:13;10.95;;;5.60;;
32333;SDS011;18810;53.040;8.850;2023-08-08T05:12:39;9.73;;;5.47;;
32333;SDS011;18810;53.040;8.850;2023-08-08T05:15:05;11.90;;;5.13;;
32333;SDS011;18810;53.040;8.850;2023-08-08T05:17:31;8.93;;;5.03;;
32333;SDS011;18810;53.040;8.850;2023-08-08T05:19:59;8.80;;;5.57;;
32333;SDS011;18810;53.040;8.850;2023-08-08T05:22:25;11.00;;;5.38;;
32333;SDS011;18810;53.040;8.850;2023-08-08T05:24:51;9.20;;;5.55;;
32333;SDS011;18810;53.040;8.850;2023-08-08T05:27:17;8.30;;;5.38;;
32333;SDS011;18810;53.040;8.850;2023-08-08T05:29:42;11.25;;;5.07;;
32333;SDS011;18810;53.040;8.850;2023-08-08T05:32:08;13.48;;;5.32;;
32333;SDS011;18810;53.040;8.850;2023-08-08T05:34:34;9.10;;;5.40;;
32333;SDS011;18810;53.040;8.850;2023-08-08T05:37:00;9.23;;;5.50;;
32333;SDS011;18810;53.040;8.850;2023-08-08T05:39:26;10.52;;;5.72;;
32333;SDS011;18810;53.040;8.850;2023-08-08T05:41:52;10.07;;;5.60;;
32333;SDS011;18810;53.040;8.850;2023-08-08T05:44:17;8.02;;;5.68;;
32333;SDS011;18810;53.040;8.850;2023-08-08T05:46:43;7.32;;;4.78;;
32333;SDS011;18810;53.040;8.850;2023-08-08T05:49:09;8.07;;;5.45;;
32333;SDS011;18810;53.040;8.850;2023-08-08T05:51:34;10.90;;;5.45;;
32333;SDS011;18810;53.040;8.850;2023-08-08T05:54:00;11.20;;;5.10;;
32333;SDS011;18810;53.040;8.850;2023-08-08T05:56:33;11.63;;;5.57;;
32333;SDS011;18810;53.040;8.850;2023-08-08T05:59:01;7.03;;;4.45;;
32333;SDS011;18810;53.040;8.850;2023-08-08T06:01:26;7.18;;;4.55;;
32333;SDS011;18810;53.040;8.850;2023-08-08T06:03:52;8.50;;;5.07;;
32333;SDS011;18810;53.040;8.850;2023-08-08T06:06:18;9.50;;;5.00;;
32333;SDS011;18810;53.040;8.850;2023-08-08T06:08:44;11.25;;;6.18;;
32333;SDS011;18810;53.040;8.850;2023-08-08T06:11:10;10.95;;;5.80;;
32333;SDS011;18810;53.040;8.850;2023-08-08T06:13:36;10.43;;;4.93;;
32333;SDS011;18810;53.040;8.850;2023-08-08T06:16:02;9.63;;;4.50;;
32333;SDS011;18810;53.040;8.850;2023-08-08T06:18:31;11.02;;;4.57;;
32333;SDS011;18810;53.040;8.850;2023-08-08T06:20:58;7.97;;;4.00;;
32333;SDS011;18810;53.040;8.850;2023-08-08T06:23:24;7.97;;;4.63;;
32333;SDS011;18810;53.040;8.850;2023-08-08T06:25:50;8.98;;;4.65;;
32333;SDS011;18810;53.040;8.850;2023-08-08T06:28:15;11.07;;;4.57;;
32333;SDS011;18810;53.040;8.850;2023-08-08T06:30:41;8.32;;;4.35;;
32333;SDS011;18810;53.040;8.850;2023-08-08T06:33:07;10.40;;;4.30;;
32333;SDS011;18810;53.040;8.850;2023-08-08T06:35:33;10.43;;;4.30;;
32333;SDS011;18810;53.040;8.850;2023-08-08T06:37:59;8.75;;;4.05;;
32333;SDS011;18810;53.040;8.850;2023-08-08T06:40:25;6.38;;;3.95;;
32333;SDS011;18810;53.040;8.850;2023-08-08T06:42:51;8.63;;;3.38;;
32333;SDS011;18810;53.040;8.850;2023-08-08T06:45:17;7.65;;;3.92;;
32333;SDS011;18810;53.040;8.850;2023-08-08T06:47:42;9.30;;;3.92;;
32333;SDS011;18810;53.040;8.850;2023-08-08T06:50:08;6.88;;;3.78;;
32333;SDS011;18810;53.040;8.850;2023-08-08T06:52:34;7.93;;;3.85;;
32333;SDS011;18810;53.040;8.850;2023-08-08T06:55:00;11.43;;;3.95;;
32333;SDS011;18810;53.040;8.850;2023-08-08T06:57:26;6.93;;;3.85;;
32333;SDS011;18810;53.040;8.850;2023-08-08T06:59:52;7.65;;;3.38;;
32333;SDS011;18810;53.040;8.850;2023-08-08T07:02:19;7.15;;;3.60;;
32333;SDS011;18810;53.040;8.850;2023-08-08T07:04:46;6.13;;;2.70;;
32333;SDS011;18810;53.040;8.850;2023-08-08T07:07:11;6.38;;;3.78;;
32333;SDS011;18810;53.040;8.850;2023-08-08T07:09:37;3.85;;;2.42;;
32333;SDS011;18810;53.040;8.850;2023-08-08T07:12:03;5.38;;;2.50;;
32333;SDS011;18810;53.040;8.850;2023-08-08T07:14:29;6.90;;;2.67;;
32333;SDS011;18810;53.040;8.850;2023-08-08T07:16:55;6.72;;;2.85;;
32333;SDS011;18810;53.040;8.850;2023-08-08T07:19:21;8.77;;;2.40;;
32333;SDS011;18810;53.040;8.850;2023-08-08T07:21:47;5.40;;;2.22;;
32333;SDS011;18810;53.040;8.850;2023-08-08T07:24:13;4.32;;;1.98;;
32333;SDS011;18810;53.040;8.850;2023-08-08T07:26:39;5.15;;;2.72;;
32333;SDS011;18810;53.040;8.850;2023-08-08T07:29:05;7.25;;;2.58;;
32333;SDS011;18810;53.040;8.850;2023-08-08T07:31:31;5.88;;;2.20;;
32333;SDS011;18810;53.040;8.850;2023-08-08T07:33:57;5.97;;;2.35;;
32333;SDS011;18810;53.040;8.850;2023-08-08T07:36:23;5.72;;;1.90;;
32333;SDS011;18810;53.040;8.850;2023-08-08T07:38:49;5.93;;;2.00;;
32333;SDS011;18810;53.040;8.850;2023-08-08T07:41:14;8.30;;;2.30;;
32333;SDS011;18810;53.040;8.850;2023-08-08T07:43:40;4.53;;;1.90;;
32333;SDS011;18810;53.040;8.850;2023-08-08T07:46:06;3.67;;;2.08;;
32333;SDS011;18810;53.040;8.850;2023-08-08T07:48:31;7.30;;;2.13;;
32333;SDS011;18810;53.040;8.850;2023-08-08T07:50:57;3.67;;;2.38;;
32333;SDS011;18810;53.040;8.850;2023-08-08T07:53:23;10.02;;;3.35;;
32333;SDS011;18810;53.040;8.850;2023-08-08T07:55:49;8.43;;;2.65;;
32333;SDS011;18810;53.040;8.850;2023-08-08T07:58:14;5.85;;;2.65;;
32333;SDS011;18810;53.040;8.850;2023-08-08T08:00:40;10.48;;;2.80;;
32333;SDS011;18810;53.040;8.850;2023-08-08T08:03:06;7.00;;;2.70;;
32333;SDS011;18810;53.040;8.850;2023-08-08T08:05:31;7.30;;;2.45;;
32333;SDS011;18810;53.040;8.850;2023-08-08T08:07:59;4.32;;;2.58;;
32333;SDS011;18810;53.040;8.850;2023-08-08T08:10:25;3.92;;;1.92;;
32333;SDS011;18810;53.040;8.850;2023-08-08T08:12:51;8.38;;;2.28;;
32333;SDS011;18810;53.040;8.850;2023-08-08T08:15:22;6.10;;;2.05;;
32333;SDS011;18810;53.040;8.850;2023-08-08T08:17:49;8.85;;;2.22;;
32333;SDS011;18810;53.040;8.850;2023-08-08T08:20:15;4.65;;;2.28;;
32333;SDS011;18810;53.040;8.850;2023-08-08T08:22:41;3.05;;;1.60;;
32333;SDS011;18810;53.040;8.850;2023-08-08T08:25:06;4.47;;;1.75;;
32333;SDS011;18810;53.040;8.850;2023-08-08T08:27:34;4.80;;;2.08;;
32333;SDS011;18810;53.040;8.850;2023-08-08T08:30:02;6.75;;;1.92;;
32333;SDS011;18810;53.040;8.850;2023-08-08T08:32:31;3.67;;;1.90;;
32333;SDS011;18810;53.040;8.850;2023-08-08T08:34:59;5.70;;;2.00;;
32333;SDS011;18810;53.040;8.850;2023-08-08T08:37:25;5.95;;;2.20;;
32333;SDS011;18810;53.040;8.850;2023-08-08T08:39:51;3.20;;;1.50;;
32333;SDS011;18810;53.040;8.850;2023-08-08T08:42:16;4.20;;;1.38;;
32333;SDS011;18810;53.040;8.850;2023-08-08T08:44:42;6.60;;;1.70;;
32333;SDS011;18810;53.040;8.850;2023-08-08T08:47:08;6.25;;;2.00;;
32333;SDS011;18810;53.040;8.850;2023-08-08T08:49:38;4.78;;;1.90;;
32333;SDS011;18810;53.040;8.850;2023-08-08T08:52:04;6.85;;;1.70;;
32333;SDS011;18810;53.040;8.850;2023-08-08T08:54:31;6.38;;;1.73;;
32333;SDS011;18810;53.040;8.850;2023-08-08T08:56:57;2.85;;;1.48;;
32333;SDS011;18810;53.040;8.850;2023-08-08T08:59:24;3.28;;;1.83;;
32333;SDS011;18810;53.040;8.850;2023-08-08T09:01:50;4.63;;;1.80;;
32333;SDS011;18810;53.040;8.850;2023-08-08T09:04:17;3.08;;;1.60;;
32333;SDS011;18810;53.040;8.850;2023-08-08T09:06:46;3.17;;;1.52;;
32333;SDS011;18810;53.040;8.850;2023-08-08T09:09:11;3.13;;;1.40;;
32333;SDS011;18810;53.040;8.850;2023-08-08T09:11:51;5.03;;;1.60;;
32333;SDS011;18810;53.040;8.850;2023-08-08T09:14:21;4.57;;;1.65;;
32333;SDS011;18810;53.040;8.850;2023-08-08T09:16:49;4.30;;;1.45;;
32333;SDS011;18810;53.040;8.850;2023-08-08T09:19:16;4.55;;;1.80;;
32333;SDS011;18810;53.040;8.850;2023-08-08T09:21:43;3.85;;;1.50;;
32333;SDS011;18810;53.040;8.850;2023-08-08T09:24:09;3.33;;;1.40;;
32333;SDS011;18810;53.040;8.850;2023-08-08T09:26:35;2.67;;;1.33;;
32333;SDS011;18810;53.040;8.850;2023-08-08T09:29:01;4.50;;;1.40;;
32333;SDS011;18810;53.040;8.850;2023-08-08T09:31:28;2.25;;;1.13;;
32333;SDS011;18810;53.040;8.850;2023-08-08T09:33:54;3.38;;;1.30;;
32333;SDS011;18810;53.040;8.850;2023-08-08T09:36:24;1.92;;;1.20;;
32333;SDS011;18810;53.040;8.850;2023-08-08T09:38:50;6.68;;;1.50;;
32333;SDS011;18810;53.040;8.850;2023-08-08T09:41:17;3.20;;;1.50;;
32333;SDS011;18810;53.040;8.850;2023-08-08T09:43:46;4.07;;;1.45;;
32333;SDS011;18810;53.040;8.850;2023-08-08T09:46:13;4.18;;;1.20;;
32333;SDS011;18810;53.040;8.850;2023-08-08T09:48:40;1.98;;;1.20;;
32333;SDS011;18810;53.040;8.850;2023-08-08T09:51:07;3.55;;;1.33;;
32333;SDS011;18810;53.040;8.850;2023-08-08T09:53:34;4.10;;;1.20;;
32333;SDS011;18810;53.040;8.850;2023-08-08T09:56:04;2.95;;;1.17;;
32333;SDS011;18810;53.040;8.850;2023-08-08T09:58:30;3.50;;;1.13;;
32333;SDS011;18810;53.040;8.850;2023-08-08T10:00:57;3.20;;;1.40;;
32333;SDS011;18810;53.040;8.850;2023-08-08T10:03:23;3.88;;;1.10;;
32333;SDS011;18810;53.040;8.850;2023-08-08T10:05:50;3.45;;;1.33;;
32333;SDS011;18810;53.040;8.850;2023-08-08T10:08:16;3.13;;;1.30;;
32333;SDS011;18810;53.040;8.850;2023-08-08T10:10:46;3.03;;;1.40;;
32333;SDS011;18810;53.040;8.850;2023-08-08T10:15:45;2.95;;;1.20;;
32333;SDS011;18810;53.040;8.850;2023-08-08T10:18:12;3.88;;;1.20;;
32333;SDS011;18810;53.040;8.850;2023-08-08T10:20:40;3.65;;;1.33;;
32333;SDS011;18810;53.040;8.850;2023-08-08T10:23:09;5.25;;;1.60;;
32333;SDS011;18810;53.040;8.850;2023-08-08T10:25:35;6.25;;;1.40;;
32333;SDS011;18810;53.040;8.850;2023-08-08T10:28:09;1.85;;;1.10;;
32333;SDS011;18810;53.040;8.850;2023-08-08T10:33:23;3.50;;;1.13;;
32333;SDS011;18810;53.040;8.850;2023-08-08T10:36:03;2.22;;;1.30;;
32333;SDS011;18810;53.040;8.850;2023-08-08T10:41:14;4.57;;;1.33;;
32333;SDS011;18810;53.040;8.850;2023-08-08T10:43:54;5.88;;;1.88;;
32333;SDS011;18810;53.040;8.850;2023-08-08T10:46:25;3.03;;;1.05;;
32333;SDS011;18810;53.040;8.850;2023-08-08T10:48:56;3.40;;;1.20;;
32333;SDS011;18810;53.040;8.850;2023-08-08T10:51:35;3.00;;;1.17;;
32333;SDS011;18810;53.040;8.850;2023-08-08T10:56:53;7.53;;;1.58;;
32333;SDS011;18810;53.040;8.850;2023-08-08T10:59:24;2.17;;;1.33;;
32333;SDS011;18810;53.040;8.850;2023-08-08T11:01:50;3.05;;;1.45;;
32333;SDS011;18810;53.040;8.850;2023-08-08T11:04:21;2.58;;;1.48;;
32333;SDS011;18810;53.040;8.850;2023-08-08T11:06:52;5.40;;;1.48;;
32333;SDS011;18810;53.040;8.850;2023-08-08T11:09:19;2.22;;;1.17;;
32333;SDS011;18810;53.040;8.850;2023-08-08T11:11:45;2.80;;;1.23;;
32333;SDS011;18810;53.040;8.850;2023-08-08T11:14:15;4.03;;;0.90;;
32333;SDS011;18810;53.040;8.850;2023-08-08T11:16:43;3.70;;;1.30;;
32333;SDS011;18810;53.040;8.850;2023-08-08T11:19:10;2.53;;;1.30;;
32333;SDS011;18810;53.040;8.850;2023-08-08T11:21:39;3.17;;;1.63;;
32333;SDS011;18810;53.040;8.850;2023-08-08T11:24:06;6.13;;;1.60;;
32333;SDS011;18810;53.040;8.850;2023-08-08T11:26:36;3.70;;;1.30;;
32333;SDS011;18810;53.040;8.850;2023-08-08T11:29:04;2.60;;;1.23;;
32333;SDS011;18810;53.040;8.850;2023-08-08T11:31:31;4.60;;;1.52;;
32333;SDS011;18810;53.040;8.850;2023-08-08T11:34:01;4.43;;;1.20;;
32333;SDS011;18810;53.040;8.850;2023-08-08T11:36:29;2.47;;;1.25;;
32333;SDS011;18810;53.040;8.850;2023-08-08T11:38:57;2.55;;;1.33;;
32333;SDS011;18810;53.040;8.850;2023-08-08T11:41:24;2.55;;;1.40;;
32333;SDS011;18810;53.040;8.850;2023-08-08T11:43:51;3.67;;;1.10;;
32333;SDS011;18810;53.040;8.850;2023-08-08T11:46:18;3.33;;;1.10;;
32333;SDS011;18810;53.040;8.850;2023-08-08T11:48:47;2.30;;;1.25;;
32333;SDS011;18810;53.040;8.850;2023-08-08T11:51:14;3.75;;;1.05;;
32333;SDS011;18810;53.040;8.850;2023-08-08T11:53:52;6.90;;;1.67;;
32333;SDS011;18810;53.040;8.850;2023-08-08T11:56:19;4.25;;;1.15;;
32333;SDS011;18810;53.040;8.850;2023-08-08T11:58:46;3.83;;;1.30;;
32333;SDS011;18810;53.040;8.850;2023-08-08T12:01:24;3.38;;;1.27;;
32333;SDS011;18810;53.040;8.850;2023-08-08T12:03:51;3.78;;;1.50;;
32333;SDS011;18810;53.040;8.850;2023-08-08T12:06:18;5.78;;;1.20;;
32333;SDS011;18810;53.040;8.850;2023-08-08T12:08:44;5.93;;;1.48;;
32333;SDS011;18810;53.040;8.850;2023-08-08T12:11:11;6.07;;;1.25;;
32333;SDS011;18810;53.040;8.850;2023-08-08T12:13:38;2.20;;;1.10;;
32333;SDS011;18810;53.040;8.850;2023-08-08T12:16:09;5.50;;;1.70;;
32333;SDS011;18810;53.040;8.850;2023-08-08T12:18:36;2.78;;;1.50;;
32333;SDS011;18810;53.040;8.850;2023-08-08T12:21:06;3.47;;;1.50;;
32333;SDS011;18810;53.040;8.850;2023-08-08T12:23:33;2.65;;;1.50;;
32333;SDS011;18810;53.040;8.850;2023-08-08T12:26:00;1.92;;;1.40;;
32333;SDS011;18810;53.040;8.850;2023-08-08T12:28:28;5.05;;;1.50;;
32333;SDS011;18810;53.040;8.850;2023-08-08T12:30:54;4.95;;;1.90;;
32333;SDS011;18810;53.040;8.850;2023-08-08T12:33:20;8.25;;;2.03;;
32333;SDS011;18810;53.040;8.850;2023-08-08T12:35:46;5.88;;;2.17;;
32333;SDS011;18810;53.040;8.850;2023-08-08T12:38:13;4.43;;;2.03;;
32333;SDS011;18810;53.040;8.850;2023-08-08T12:40:39;8.15;;;2.10;;
32333;SDS011;18810;53.040;8.850;2023-08-08T12:43:05;3.95;;;1.95;;
32333;SDS011;18810;53.040;8.850;2023-08-08T12:45:31;6.18;;;1.90;;
32333;SDS011;18810;53.040;8.850;2023-08-08T12:47:56;2.22;;;1.60;;
32333;SDS011;18810;53.040;8.850;2023-08-08T12:50:22;3.60;;;1.85;;
32333;SDS011;18810;53.040;8.850;2023-08-08T12:52:48;4.85;;;1.80;;
32333;SDS011;18810;53.040;8.850;2023-08-08T12:55:14;6.03;;;1.58;;
32333;SDS011;18810;53.040;8.850;2023-08-08T12:57:42;4.72;;;1.35;;
32333;SDS011;18810;53.040;8.850;2023-08-08T13:00:09;5.03;;;1.58;;
32333;SDS011;18810;53.040;8.850;2023-08-08T13:02:36;3.00;;;1.40;;
32333;SDS011;18810;53.040;8.850;2023-08-08T13:05:03;1.73;;;1.30;;
32333;SDS011;18810;53.040;8.850;2023-08-08T13:07:29;3.22;;;1.48;;
32333;SDS011;18810;53.040;8.850;2023-08-08T13:09:55;3.83;;;1.63;;
32333;SDS011;18810;53.040;8.850;2023-08-08T13:12:20;3.28;;;1.70;;
32333;SDS011;18810;53.040;8.850;2023-08-08T13:14:46;2.88;;;1.70;;
32333;SDS011;18810;53.040;8.850;2023-08-08T13:17:12;3.00;;;1.50;;
32333;SDS011;18810;53.040;8.850;2023-08-08T13:19:38;4.30;;;2.13;;
32333;SDS011;18810;53.040;8.850;2023-08-08T13:22:04;4.75;;;2.22;;
32333;SDS011;18810;53.040;8.850;2023-08-08T13:24:30;4.80;;;1.50;;
32333;SDS011;18810;53.040;8.850;2023-08-08T13:26:56;5.38;;;1.65;;
32333;SDS011;18810;53.040;8.850;2023-08-08T13:29:22;4.03;;;1.70;;
32333;SDS011;18810;53.040;8.850;2023-08-08T13:31:47;5.40;;;1.75;;
32333;SDS011;18810;53.040;8.850;2023-08-08T13:34:13;4.53;;;1.60;;
32333;SDS011;18810;53.040;8.850;2023-08-08T13:36:39;2.33;;;1.40;;
32333;SDS011;18810;53.040;8.850;2023-08-08T13:39:05;1.88;;;1.25;;
32333;SDS011;18810;53.040;8.850;2023-08-08T13:41:31;2.88;;;1.40;;
32333;SDS011;18810;53.040;8.850;2023-08-08T13:43:56;2.28;;;1.13;;
32333;SDS011;18810;53.040;8.850;2023-08-08T13:46:22;3.45;;;1.40;;
32333;SDS011;18810;53.040;8.850;2023-08-08T13:48:48;2.42;;;1.67;;
32333;SDS011;18810;53.040;8.850;2023-08-08T13:51:13;3.17;;;1.63;;
32333;SDS011;18810;53.040;8.850;2023-08-08T13:53:39;3.17;;;1.40;;
32333;SDS011;18810;53.040;8.850;2023-08-08T13:56:05;4.00;;;1.23;;
32333;SDS011;18810;53.040;8.850;2023-08-08T13:58:31;1.23;;;0.82;;
32333;SDS011;18810;53.040;8.850;2023-08-08T14:00:56;2.63;;;1.20;;
32333;SDS011;18810;53.040;8.850;2023-08-08T14:03:23;1.88;;;1.08;;
32333;SDS011;18810;53.040;8.850;2023-08-08T14:05:49;2.15;;;1.17;;
32333;SDS011;18810;53.040;8.850;2023-08-08T14:08:17;2.60;;;0.90;;
32333;SDS011;18810;53.040;8.850;2023-08-08T14:10:43;4.47;;;1.23;;
32333;SDS011;18810;53.040;8.850;2023-08-08T14:13:09;4.00;;;1.25;;
32333;SDS011;18810;53.040;8.850;2023-08-08T14:15:36;1.95;;;1.13;;
32333;SDS011;18810;53.040;8.850;2023-08-08T14:18:02;4.63;;;1.20;;
32333;SDS011;18810;53.040;8.850;2023-08-08T14:20:28;5.38;;;1.48;;
32333;SDS011;18810;53.040;8.850;2023-08-08T14:22:54;3.85;;;1.20;;
32333;SDS011;18810;53.040;8.850;2023-08-08T14:25:20;4.18;;;1.58;;
32333;SDS011;18810;53.040;8.850;2023-08-08T14:27:46;4.20;;;1.30;;
32333;SDS011;18810;53.040;8.850;2023-08-08T14:30:12;3.22;;;1.35;;
32333;SDS011;18810;53.040;8.850;2023-08-08T14:32:37;3.13;;;1.50;;
32333;SDS011;18810;53.040;8.850;2023-08-08T14:35:03;2.90;;;1.30;;
32333;SDS011;18810;53.040;8.850;2023-08-08T14:37:30;4.93;;;1.38;;
32333;SDS011;18810;53.040;8.850;2023-08-08T14:39:56;2.90;;;1.30;;
32333;SDS011;18810;53.040;8.850;2023-08-08T14:42:22;3.25;;;1.30;;
32333;SDS011;18810;53.040;8.850;2023-08-08T14:44:48;6.85;;;1.98;;
32333;SDS011;18810;53.040;8.850;2023-08-08T14:47:14;1.83;;;0.95;;
32333;SDS011;18810;53.040;8.850;2023-08-08T14:49:40;2.28;;;1.27;;
32333;SDS011;18810;53.040;8.850;2023-08-08T14:52:05;2.67;;;1.40;;
32333;SDS011;18810;53.040;8.850;2023-08-08T14:54:34;3.10;;;1.35;;